createdAt,value
2023-01-22T00:00:37.602Z,7.50
2023-01-22T00:03:04.652Z,6.85
2023-01-22T00:05:31.577Z,8.15
2023-01-22T00:07:58.547Z,8.68
2023-01-22T00:10:25.516Z,7.57
2023-01-22T00:12:52.488Z,8.38
2023-01-22T00:15:19.447Z,8.82
2023-01-22T00:17:46.359Z,9.07
2023-01-22T00:20:13.749Z,9.07
2023-01-22T00:22:40.757Z,7.95
2023-01-22T00:25:08.247Z,7.85
2023-01-22T00:27:35.569Z,8.38
2023-01-22T00:30:02.531Z,9.23
2023-01-22T00:32:29.432Z,8.45
2023-01-22T00:34:56.407Z,9.25
2023-01-22T00:37:23.373Z,9.02
2023-01-22T00:39:50.320Z,8.15
2023-01-22T00:42:17.267Z,8.43
2023-01-22T00:44:44.194Z,8.25
2023-01-22T00:47:12.330Z,8.40
2023-01-22T00:49:39.268Z,8.20
2023-01-22T00:52:06.272Z,8.60
2023-01-22T00:54:33.258Z,8.10
2023-01-22T00:57:00.187Z,8.57
2023-01-22T00:59:27.198Z,8.63
2023-01-22T01:01:54.160Z,7.43
2023-01-22T01:04:21.187Z,8.25
2023-01-22T01:06:48.160Z,8.05
2023-01-22T01:09:15.107Z,8.15
2023-01-22T01:11:42.080Z,7.72
2023-01-22T01:14:09.035Z,7.47
2023-01-22T01:16:36.249Z,8.15
2023-01-22T01:19:06.492Z,7.80
2023-01-22T01:21:33.920Z,7.53
2023-01-22T01:24:01.074Z,7.43
2023-01-22T01:26:28.481Z,7.78
2023-01-22T01:28:55.493Z,7.30
2023-01-22T01:31:26.315Z,8.05
2023-01-22T01:33:53.535Z,7.22
2023-01-22T01:36:40.501Z,7.28
2023-01-22T01:39:11.238Z,7.20
2023-01-22T01:41:38.271Z,8.13
2023-01-22T01:44:20.818Z,8.05
2023-01-22T01:47:06.119Z,8.35
2023-01-22T01:49:35.211Z,7.57
2023-01-22T01:52:06.788Z,7.80
2023-01-22T01:54:34.139Z,8.15
2023-01-22T01:57:07.561Z,7.60
2023-01-22T01:59:35.307Z,8.88
2023-01-22T02:02:03.071Z,7.80
2023-01-22T02:04:30.808Z,7.18
2023-01-22T02:06:57.766Z,6.97
2023-01-22T02:09:24.896Z,8.18
2023-01-22T02:11:53.326Z,7.18
2023-01-22T02:14:29.726Z,8.05
2023-01-22T02:17:06.519Z,8.32
2023-01-22T02:19:33.476Z,8.25
2023-01-22T02:22:00.788Z,7.38
2023-01-22T02:24:31.652Z,8.13
2023-01-22T02:26:58.637Z,8.80
2023-01-22T02:29:27.234Z,8.60
2023-01-22T02:31:54.218Z,7.80
2023-01-22T02:34:24.629Z,8.43
2023-01-22T02:36:51.955Z,8.90
2023-01-22T02:39:18.983Z,8.77
2023-01-22T02:41:46.096Z,9.32
2023-01-22T02:44:13.138Z,9.35
2023-01-22T02:46:40.136Z,10.05
2023-01-22T02:49:07.195Z,9.32
2023-01-22T02:51:34.341Z,10.15
2023-01-22T02:54:01.368Z,9.65
2023-01-22T02:56:28.399Z,9.40
2023-01-22T02:58:55.824Z,8.95
2023-01-22T03:01:24.840Z,10.27
2023-01-22T03:03:54.688Z,10.02
2023-01-22T03:06:24.454Z,10.10
2023-01-22T03:08:54.787Z,10.07
2023-01-22T03:11:22.538Z,11.02
2023-01-22T03:14:07.892Z,9.90
2023-01-22T03:16:53.433Z,9.15
2023-01-22T03:19:39.584Z,9.50
2023-01-22T03:22:06.713Z,9.68
2023-01-22T03:24:33.732Z,9.45
2023-01-22T03:27:01.467Z,9.20
2023-01-22T03:29:28.408Z,8.43
2023-01-22T03:31:55.436Z,8.65
2023-01-22T03:34:23.863Z,9.70
2023-01-22T03:36:50.849Z,9.85
2023-01-22T03:39:17.780Z,9.90
2023-01-22T03:41:44.724Z,9.30
2023-01-22T03:44:11.930Z,9.65
2023-01-22T03:46:42.758Z,9.30
2023-01-22T03:49:10.227Z,10.80
2023-01-22T03:51:37.545Z,10.48
2023-01-22T03:54:04.808Z,9.80
2023-01-22T03:56:31.833Z,11.35
2023-01-22T03:58:59.229Z,10.95
2023-01-22T04:01:27.775Z,10.38
2023-01-22T04:03:55.465Z,11.18
2023-01-22T04:06:23.270Z,10.32
2023-01-22T04:08:52.868Z,10.95
2023-01-22T04:11:19.823Z,11.15
2023-01-22T04:13:47.329Z,11.82
2023-01-22T04:16:15.343Z,10.20
2023-01-22T04:18:42.810Z,11.27
2023-01-22T04:21:10.073Z,10.90
2023-01-22T04:23:37.097Z,10.48
2023-01-22T04:26:04.143Z,11.07
2023-01-22T04:28:31.110Z,10.68
2023-01-22T04:30:58.244Z,10.15
2023-01-22T04:33:25.194Z,9.88
2023-01-22T04:35:54.252Z,10.07
2023-01-22T04:38:21.795Z,10.38
2023-01-22T04:40:48.883Z,11.35
2023-01-22T04:43:15.928Z,10.60
2023-01-22T04:45:43.092Z,10.18
2023-01-22T04:48:11.237Z,9.90
2023-01-22T04:50:38.685Z,10.13
2023-01-22T04:53:05.791Z,10.55
2023-01-22T04:55:32.837Z,9.63
2023-01-22T04:58:01.466Z,9.50
2023-01-22T05:00:30.264Z,8.57
2023-01-22T05:03:01.992Z,10.00
2023-01-22T05:05:30.303Z,10.10
2023-01-22T05:07:57.474Z,11.95
2023-01-22T05:10:24.745Z,11.10
2023-01-22T05:12:51.950Z,10.77
2023-01-22T05:15:24.382Z,9.57
2023-01-22T05:17:52.890Z,9.73
2023-01-22T05:20:20.828Z,10.38
2023-01-22T05:22:48.185Z,9.10
2023-01-22T05:25:15.247Z,9.43
2023-01-22T05:27:42.207Z,9.43
2023-01-22T05:30:10.748Z,9.52
2023-01-22T05:32:38.294Z,9.82
2023-01-22T05:35:06.549Z,9.60
2023-01-22T05:37:33.564Z,8.90
2023-01-22T05:40:00.619Z,8.82
2023-01-22T05:42:27.558Z,9.48
2023-01-22T05:44:54.461Z,8.95
2023-01-22T05:47:21.421Z,8.73
2023-01-22T05:49:48.361Z,8.57
2023-01-22T05:52:15.264Z,8.75
2023-01-22T05:54:42.278Z,8.45
2023-01-22T05:57:09.203Z,9.07
2023-01-22T05:59:36.159Z,8.50
2023-01-22T06:02:03.262Z,8.65
2023-01-22T06:04:30.292Z,7.82
2023-01-22T06:06:57.273Z,8.52
2023-01-22T06:09:24.941Z,8.27
2023-01-22T06:11:51.850Z,8.13
2023-01-22T06:14:18.794Z,8.88
2023-01-22T06:16:45.777Z,8.82
2023-01-22T06:19:12.852Z,8.30
2023-01-22T06:21:43.783Z,10.38
2023-01-22T06:24:11.370Z,9.15
2023-01-22T06:26:38.542Z,10.25
2023-01-22T06:29:05.842Z,9.77
2023-01-22T06:31:33.009Z,9.88
2023-01-22T06:34:00.125Z,10.32
2023-01-22T06:36:27.429Z,9.55
2023-01-22T06:38:54.332Z,9.95
2023-01-22T06:41:21.339Z,10.18
2023-01-22T06:43:48.356Z,9.90
2023-01-22T06:46:15.634Z,9.13
2023-01-22T06:48:43.839Z,8.80
2023-01-22T06:51:11.373Z,9.20
2023-01-22T06:53:39.054Z,9.68
2023-01-22T06:56:06.585Z,9.68
2023-01-22T06:58:33.571Z,10.20
2023-01-22T07:01:02.078Z,9.38
2023-01-22T07:03:29.559Z,9.90
2023-01-22T07:06:01.441Z,9.95
2023-01-22T07:08:30.143Z,9.70
2023-01-22T07:10:57.411Z,10.10
2023-01-22T07:13:24.356Z,10.35
2023-01-22T07:15:51.383Z,9.27
2023-01-22T07:18:20.958Z,9.52
2023-01-22T07:20:48.454Z,9.00
2023-01-22T07:23:15.763Z,8.82
2023-01-22T07:25:45.010Z,9.52
2023-01-22T07:28:15.014Z,9.20
2023-01-22T07:30:43.481Z,9.30
2023-01-22T07:33:11.919Z,9.35
2023-01-22T07:35:39.367Z,9.52
2023-01-22T07:38:07.250Z,9.00
2023-01-22T07:40:34.865Z,8.70
2023-01-22T07:43:06.701Z,9.05
2023-01-22T07:45:34.739Z,9.13
2023-01-22T07:48:02.640Z,8.95
2023-01-22T07:50:31.947Z,8.05
2023-01-22T07:53:00.800Z,9.77
2023-01-22T07:55:28.150Z,9.95
2023-01-22T07:58:06.774Z,9.55
2023-01-22T08:00:36.183Z,10.10
2023-01-22T08:03:10.508Z,9.15
2023-01-22T08:05:39.990Z,9.32
2023-01-22T08:08:12.293Z,9.38
2023-01-22T08:10:39.238Z,9.73
2023-01-22T08:13:06.332Z,11.07
2023-01-22T08:15:33.580Z,10.02
2023-01-22T08:18:00.704Z,10.25
2023-01-22T08:20:27.741Z,10.73
2023-01-22T08:23:01.854Z,11.05
2023-01-22T08:25:29.319Z,10.60
2023-01-22T08:27:56.580Z,10.70
2023-01-22T08:30:23.713Z,9.95
2023-01-22T08:32:51.581Z,10.05
2023-01-22T08:35:18.736Z,11.65
2023-01-22T08:37:45.773Z,11.20
2023-01-22T08:40:14.059Z,11.43
2023-01-22T08:42:41.483Z,10.48
2023-01-22T08:45:09.386Z,10.23
2023-01-22T08:47:36.615Z,10.77
2023-01-22T08:50:04.148Z,11.13
2023-01-22T08:52:31.233Z,11.18
2023-01-22T08:54:58.179Z,10.77
2023-01-22T08:57:25.321Z,10.80
2023-01-22T09:00:00.738Z,10.98
2023-01-22T09:02:28.370Z,11.10
2023-01-22T09:04:55.357Z,10.93
2023-01-22T09:07:22.381Z,11.18
2023-01-22T09:09:49.492Z,11.35
2023-01-22T09:12:16.647Z,9.82
2023-01-22T09:14:43.703Z,10.32
2023-01-22T09:17:10.764Z,11.63
2023-01-22T09:19:37.717Z,10.50
2023-01-22T09:22:06.789Z,10.20
2023-01-22T09:24:34.136Z,10.55
2023-01-22T09:27:01.160Z,9.75
2023-01-22T09:29:28.125Z,11.75
2023-01-22T09:31:55.132Z,11.20
2023-01-22T09:34:22.129Z,10.73
2023-01-22T09:36:49.065Z,11.05
2023-01-22T09:39:16.117Z,10.50
2023-01-22T09:41:53.170Z,10.68
2023-01-22T09:44:27.225Z,11.57
2023-01-22T09:47:00.092Z,11.23
2023-01-22T09:49:57.528Z,10.70
2023-01-22T09:52:27.636Z,10.27
2023-01-22T09:54:54.744Z,10.38
2023-01-22T09:57:31.160Z,10.45
2023-01-22T09:59:59.112Z,10.65
2023-01-22T10:02:34.844Z,11.10
2023-01-22T10:05:20.729Z,10.40
2023-01-22T10:07:53.604Z,10.63
2023-01-22T10:10:23.841Z,10.98
2023-01-22T10:13:16.382Z,12.20
2023-01-22T10:15:43.690Z,9.93
2023-01-22T10:18:29.398Z,9.70
2023-01-22T10:20:58.129Z,9.45
2023-01-22T10:23:26.358Z,9.98
2023-01-22T10:26:07.228Z,10.88
2023-01-22T10:28:34.228Z,10.38
2023-01-22T10:31:01.324Z,10.27
2023-01-22T10:33:28.667Z,11.02
2023-01-22T10:35:57.259Z,11.20
2023-01-22T10:38:30.778Z,10.88
2023-01-22T10:41:00.426Z,11.55
2023-01-22T10:43:33.239Z,10.07
2023-01-22T10:46:24.291Z,9.85
2023-01-22T10:49:02.059Z,11.27
2023-01-22T10:51:37.473Z,10.82
2023-01-22T10:54:15.270Z,9.60
2023-01-22T10:56:42.340Z,10.40
2023-01-22T10:59:23.344Z,9.93
2023-01-22T11:02:00.511Z,10.70
2023-01-22T11:04:31.291Z,10.23
2023-01-22T11:07:06.500Z,10.73
2023-01-22T11:09:39.583Z,10.75
2023-01-22T11:12:15.987Z,10.82
2023-01-22T11:14:43.898Z,12.20
2023-01-22T11:17:19.281Z,10.20
2023-01-22T11:19:55.689Z,10.77
2023-01-22T11:22:33.522Z,10.15
2023-01-22T11:25:00.520Z,11.80
2023-01-22T11:27:52.805Z,11.65
2023-01-22T11:30:30.563Z,10.32
2023-01-22T11:32:57.586Z,10.95
2023-01-22T11:36:01.677Z,10.88
2023-01-22T11:38:51.533Z,10.25
2023-01-22T11:41:44.959Z,11.40
2023-01-22T11:44:33.303Z,11.07
2023-01-22T11:47:24.611Z,11.27
2023-01-22T11:50:00.108Z,11.30
2023-01-22T11:52:56.054Z,10.93
2023-01-22T11:55:57.090Z,10.65
2023-01-22T11:58:57.857Z,11.18
2023-01-22T12:01:53.229Z,11.02
2023-01-22T12:04:39.638Z,10.95
2023-01-22T12:07:45.743Z,10.93
2023-01-22T12:10:25.224Z,10.98
2023-01-22T12:13:20.777Z,11.32
2023-01-22T12:15:59.656Z,11.27
2023-01-22T12:19:04.241Z,10.68
2023-01-22T12:21:40.649Z,10.40
2023-01-22T12:24:26.430Z,9.68
2023-01-22T12:27:07.194Z,9.85
2023-01-22T12:30:26.225Z,10.32
2023-01-22T12:32:58.909Z,9.32
2023-01-22T12:35:29.430Z,9.40
2023-01-22T12:38:10.038Z,9.65
2023-01-22T12:40:43.671Z,9.32
2023-01-22T12:43:11.198Z,9.02
2023-01-22T12:45:48.758Z,8.52
2023-01-22T12:48:28.846Z,8.45
2023-01-22T12:50:57.954Z,8.23
2023-01-22T12:53:30.970Z,8.32
2023-01-22T12:56:06.756Z,8.27
2023-01-22T12:58:37.093Z,7.97
2023-01-22T13:01:22.892Z,7.82
2023-01-22T13:04:05.679Z,7.80
2023-01-22T13:06:36.209Z,7.15
2023-01-22T13:09:05.692Z,7.90
2023-01-22T13:11:36.693Z,7.03
2023-01-22T13:14:21.637Z,8.35
2023-01-22T13:16:59.588Z,7.90
2023-01-22T13:19:30.092Z,8.82
2023-01-22T13:22:01.210Z,9.25
2023-01-22T13:24:28.238Z,8.70
2023-01-22T13:27:03.366Z,9.27
2023-01-22T13:29:37.532Z,7.80
2023-01-22T13:32:15.999Z,8.40
2023-01-22T13:34:42.960Z,8.27
2023-01-22T13:37:24.278Z,9.52
2023-01-22T13:39:51.465Z,8.93
2023-01-22T13:42:18.666Z,8.65
2023-01-22T13:44:51.541Z,8.50
2023-01-22T13:47:32.897Z,8.48
2023-01-22T13:50:00.088Z,8.57
2023-01-22T13:52:28.649Z,8.25
2023-01-22T13:55:11.083Z,8.00
2023-01-22T13:57:45.334Z,8.02
2023-01-22T14:00:28.573Z,8.50
2023-01-22T14:02:56.643Z,8.38
2023-01-22T14:05:26.746Z,8.68
2023-01-22T14:08:09.919Z,8.07
2023-01-22T14:10:37.813Z,9.07
2023-01-22T14:13:06.515Z,8.77
2023-01-22T14:15:34.227Z,7.38
2023-01-22T14:18:13.449Z,7.57
2023-01-22T14:20:46.025Z,8.02
2023-01-22T14:23:13.865Z,7.70
2023-01-22T14:25:47.704Z,7.90
2023-01-22T14:28:15.772Z,7.22
2023-01-22T14:30:42.809Z,7.72
2023-01-22T14:33:24.130Z,7.25
2023-01-22T14:35:51.896Z,6.35
2023-01-22T14:38:21.750Z,6.65
2023-01-22T14:40:49.057Z,6.30
2023-01-22T14:43:16.073Z,6.00
2023-01-22T14:45:45.515Z,5.07
2023-01-22T14:48:16.926Z,5.22
2023-01-22T14:50:44.348Z,5.57
2023-01-22T14:53:11.881Z,5.95
2023-01-22T14:55:39.106Z,5.38
2023-01-22T14:58:06.826Z,5.57
2023-01-22T15:00:33.933Z,5.38
2023-01-22T15:03:01.225Z,5.35
2023-01-22T15:05:29.683Z,4.90
2023-01-22T15:07:56.852Z,4.78
2023-01-22T15:10:23.922Z,3.92
2023-01-22T15:12:52.812Z,3.80
2023-01-22T15:15:25.264Z,3.33
2023-01-22T15:17:57.276Z,3.25
2023-01-22T15:20:24.924Z,2.58
2023-01-22T15:22:52.207Z,2.60
2023-01-22T15:25:19.745Z,2.30
2023-01-22T15:27:46.833Z,2.20
2023-01-22T15:30:14.811Z,1.92
2023-01-22T15:32:42.071Z,2.08
2023-01-22T15:35:09.665Z,2.20
2023-01-22T15:37:36.867Z,2.42
2023-01-22T15:40:04.410Z,2.00
2023-01-22T15:42:31.557Z,2.03
2023-01-22T15:44:58.551Z,1.85
2023-01-22T15:47:25.544Z,2.00
2023-01-22T15:49:52.520Z,2.35
2023-01-22T15:52:19.471Z,3.22
2023-01-22T15:54:46.423Z,3.67
2023-01-22T15:57:14.152Z,3.88
2023-01-22T15:59:42.143Z,4.35
2023-01-22T16:02:12.443Z,4.40
2023-01-22T16:04:39.499Z,4.80
2023-01-22T16:07:06.503Z,4.28
2023-01-22T16:09:34.103Z,4.65
2023-01-22T16:12:01.130Z,4.15
2023-01-22T16:14:29.277Z,4.38
2023-01-22T16:16:56.429Z,4.68
2023-01-22T16:19:23.707Z,4.25
2023-01-22T16:21:52.420Z,4.00
2023-01-22T16:24:19.567Z,4.35
2023-01-22T16:26:46.724Z,3.70
2023-01-22T16:29:17.699Z,4.00
2023-01-22T16:31:45.028Z,3.80
2023-01-22T16:42:21.462Z,4.40
2023-01-22T16:47:30.712Z,3.65
2023-01-22T16:49:57.789Z,3.45
2023-01-22T16:52:24.777Z,3.13
2023-01-22T16:54:51.881Z,4.13
2023-01-22T16:57:20.264Z,3.70
2023-01-22T16:59:47.462Z,3.25
2023-01-22T17:02:16.139Z,4.50
2023-01-22T17:04:43.546Z,3.10
2023-01-22T17:07:27.303Z,2.88
2023-01-22T17:09:58.925Z,2.90
2023-01-22T17:12:26.569Z,2.70
2023-01-22T17:14:53.581Z,3.08
2023-01-22T17:17:20.598Z,3.53
2023-01-22T17:19:47.570Z,3.17
2023-01-22T17:22:14.524Z,3.85
2023-01-22T17:24:41.850Z,3.20
2023-01-22T17:27:09.057Z,3.03
2023-01-22T17:29:36.379Z,3.38
2023-01-22T17:32:04.346Z,3.30
2023-01-22T17:34:31.416Z,3.03
2023-01-22T17:36:58.380Z,3.30
2023-01-22T17:39:25.415Z,3.15
2023-01-22T17:41:52.430Z,3.25
2023-01-22T17:44:19.504Z,3.50
2023-01-22T17:46:49.107Z,3.58
2023-01-22T17:49:16.743Z,3.83
2023-01-22T17:51:44.444Z,4.05
2023-01-22T17:54:11.401Z,3.50
2023-01-22T17:56:45.620Z,3.75
2023-01-22T17:59:13.374Z,3.17
2023-01-22T18:01:41.058Z,4.28
2023-01-22T18:04:10.554Z,3.53
2023-01-22T18:06:38.648Z,4.03
2023-01-22T18:09:06.921Z,3.55
2023-01-22T18:11:35.201Z,4.72
2023-01-22T18:14:08.132Z,4.18
2023-01-22T18:16:38.076Z,3.40
2023-01-22T18:19:07.458Z,4.63
2023-01-22T18:21:38.926Z,3.92
2023-01-22T18:24:08.078Z,4.35
2023-01-22T18:26:35.963Z,4.32
2023-01-22T18:29:04.871Z,3.92
2023-01-22T18:31:32.160Z,4.30
2023-01-22T18:34:02.359Z,4.07
2023-01-22T18:36:39.385Z,5.07
2023-01-22T18:44:25.242Z,4.93
2023-01-22T18:46:55.714Z,5.13
2023-01-22T18:49:23.430Z,5.35
2023-01-22T18:51:50.391Z,6.03
2023-01-22T18:54:17.667Z,5.70
2023-01-22T18:56:45.853Z,4.80
2023-01-22T18:59:13.232Z,6.50
2023-01-22T19:01:41.153Z,6.03
2023-01-22T19:04:10.346Z,5.70
2023-01-22T19:06:38.682Z,4.68
2023-01-22T19:09:12.313Z,5.55
2023-01-22T19:11:42.265Z,6.63
2023-01-22T19:14:13.200Z,6.45
2023-01-22T19:16:40.191Z,6.95
2023-01-22T19:19:11.434Z,6.00
2023-01-22T19:21:47.048Z,5.15
2023-01-22T19:24:16.475Z,6.50
2023-01-22T19:26:46.400Z,4.90
2023-01-22T19:29:17.378Z,6.88
2023-01-22T19:31:47.490Z,5.35
2023-01-22T19:34:21.214Z,7.20
2023-01-22T19:36:48.200Z,6.63
2023-01-22T19:39:15.201Z,6.60
2023-01-22T19:41:43.008Z,6.35
2023-01-22T19:50:10.318Z,4.53
2023-01-22T19:52:37.296Z,4.05
2023-01-22T19:55:07.346Z,4.20
2023-01-22T19:57:34.439Z,5.70
2023-01-22T20:00:01.594Z,5.53
2023-01-22T20:02:28.765Z,3.60
2023-01-22T20:04:55.862Z,4.63
2023-01-22T20:07:25.168Z,3.83
2023-01-22T20:09:54.331Z,7.28
2023-01-22T20:12:22.040Z,7.63
2023-01-22T20:14:48.972Z,7.18
2023-01-22T20:17:16.808Z,6.40
2023-01-22T20:19:43.816Z,6.43
2023-01-22T20:22:11.110Z,5.82
2023-01-22T20:24:40.307Z,5.75
2023-01-22T20:27:08.079Z,5.40
2023-01-22T20:29:37.099Z,4.85
2023-01-22T20:32:04.185Z,5.00
2023-01-22T20:34:31.183Z,5.05
2023-01-22T20:36:58.186Z,4.45
2023-01-22T20:39:25.278Z,4.25
2023-01-22T20:41:54.209Z,3.88
2023-01-22T20:44:21.393Z,3.90
2023-01-22T20:46:48.992Z,4.43
2023-01-22T20:49:16.022Z,4.82
2023-01-22T20:51:43.027Z,3.78
2023-01-22T20:54:10.531Z,4.30
2023-01-22T20:56:37.455Z,4.07
2023-01-22T20:59:11.652Z,4.40
2023-01-22T21:01:39.206Z,4.50
2023-01-22T21:04:06.778Z,4.45
2023-01-22T21:06:35.960Z,5.38
2023-01-22T21:09:05.143Z,4.35
2023-01-22T21:11:34.564Z,4.82
2023-01-22T21:14:04.205Z,4.80
2023-01-22T21:16:37.808Z,4.35
2023-01-22T21:19:07.729Z,4.13
2023-01-22T21:21:35.669Z,3.35
2023-01-22T21:24:03.207Z,4.35
2023-01-22T21:26:32.352Z,3.97
2023-01-22T21:29:02.187Z,5.35
2023-01-22T21:31:29.780Z,4.68
2023-01-22T21:34:04.849Z,4.03
2023-01-22T21:36:34.773Z,4.97
2023-01-22T21:39:02.716Z,5.10
2023-01-22T21:41:29.813Z,4.53
2023-01-22T21:44:15.799Z,5.72
2023-01-22T21:46:44.390Z,5.03
2023-01-22T21:49:17.825Z,4.40
2023-01-22T21:51:50.612Z,5.57
2023-01-22T21:54:39.163Z,4.55
2023-01-22T21:57:11.435Z,4.55
2023-01-22T21:59:38.423Z,3.97
2023-01-22T22:02:07.001Z,3.55
2023-01-22T22:04:34.583Z,4.65
2023-01-22T22:07:01.540Z,4.40
2023-01-22T22:09:30.712Z,3.95
2023-01-22T22:11:59.945Z,3.50
2023-01-22T22:14:27.052Z,3.63
2023-01-22T22:16:54.197Z,3.25
2023-01-22T22:19:23.056Z,4.03
2023-01-22T22:21:51.164Z,3.50
2023-01-22T22:24:19.468Z,3.40
2023-01-22T22:26:46.511Z,3.35
2023-01-22T22:29:13.498Z,3.00
2023-01-22T22:31:40.596Z,3.05
2023-01-22T22:34:07.615Z,3.17
2023-01-22T22:36:34.920Z,3.53
2023-01-22T22:39:02.505Z,2.83
2023-01-22T22:41:32.372Z,2.63
2023-01-22T22:43:59.515Z,2.85
2023-01-22T22:46:29.755Z,3.20
2023-01-22T22:48:59.473Z,2.53
2023-01-22T22:51:38.349Z,3.05
2023-01-22T22:54:16.795Z,3.47
2023-01-22T22:56:45.219Z,3.40
2023-01-22T22:59:13.096Z,3.00
2023-01-22T23:01:40.072Z,3.20
2023-01-22T23:04:07.792Z,3.17
2023-01-22T23:06:36.446Z,2.90
2023-01-22T23:09:06.455Z,2.88
2023-01-22T23:11:35.173Z,2.80
2023-01-22T23:14:02.819Z,4.47
2023-01-22T23:16:33.014Z,3.45
2023-01-22T23:19:02.287Z,4.18
2023-01-22T23:21:30.036Z,4.28
2023-01-22T23:23:57.150Z,4.10
2023-01-22T23:26:29.948Z,4.00
2023-01-22T23:29:00.457Z,4.00
2023-01-22T23:31:29.964Z,4.38
2023-01-22T23:33:57.806Z,4.40
2023-01-22T23:36:28.484Z,4.63
2023-01-22T23:38:55.752Z,5.22
2023-01-22T23:41:23.397Z,4.80
2023-01-22T23:43:50.641Z,5.10
2023-01-22T23:46:26.082Z,4.78
2023-01-22T23:48:55.048Z,5.30
2023-01-22T23:51:22.483Z,4.47
2023-01-22T23:53:53.579Z,4.05
2023-01-22T23:56:23.049Z,4.40
2023-01-22T23:58:50.293Z,4.85
